This is the latest recevied weather packets stored in our database for station/object AF1E. If no packets are shown the sender has not sent any weather packets the latest 10 day(s).
| Time | Temp. | Humidity | Pressure | Rain* | Wind** | Luminosity | Snow |
|---|---|---|---|---|---|---|---|
| 1777216516 | 18.89° C | 80% | 1012.8 hPa | 0 mm | - | - | - |
| 1777209316 | 16.67° C | 95% | 1011.9 hPa | 0 mm | - | - | - |
| 1777202716 | 15° C | 95% | 1011 hPa | 0 mm | - | - | - |
| 1777194917 | 15.56° C | 95% | 1009.5 hPa | 0 mm | - | - | - |
| 1777194317 | 15.56° C | 95% | 1009.7 hPa | 0 mm | - | - | - |
| 1777188917 | 15.56° C | 95% | 1009 hPa | 0 mm | - | - | - |
| 1777187717 | 15.56° C | 95% | 1008.8 hPa | 0 mm | - | - | - |
| 1777184117 | 15.56° C | 95% | 1008.7 hPa | 0 mm | - | - | - |
| 1777181717 | 15.56° C | 95% | 1008.9 hPa | 0 mm | - | - | - |
| 1777175717 | 15.56° C | 94% | 1009.1 hPa | 0 mm | - | - | - |
| 1777175117 | 15.56° C | 94% | 1009.1 hPa | 0 mm | - | - | - |
| 1777173337 | 16.11° C | 94% | 1008.9 hPa | 0 mm | - | - | - |
| 1777172717 | 16.11° C | 94% | 1008.7 hPa | 0 mm | - | - | - |
| 1777166717 | 16.11° C | 93% | 1009.1 hPa | 0.51 mm | - | - | - |
| 1777164317 | 16.11° C | 93% | 1008.8 hPa | 1.52 mm | - | - | - |
| 1777163737 | 16.11° C | 93% | 1008.7 hPa | 1.78 mm | - | - | - |
| 1777154716 | 16.67° C | 92% | 1009 hPa | 4.06 mm | - | - | - |
| 1777153517 | 16.67° C | 91% | 1008.9 hPa | 7.11 mm | - | - | - |
| 1777145716 | 23.89° C | 65% | 1007 hPa | 1.02 mm | - | - | - |
| 1777144516 | 26.67° C | 42% | 1006.7 hPa | 0 mm | - | - | - |
| 1777143916 | 27.22° C | 40% | 1006.7 hPa | 0 mm | - | - | - |
| 1777137316 | 27.78° C | 41% | 1007.4 hPa | 0 mm | - | - | - |
| 1777133116 | 27.78° C | 43% | 1008 hPa | 0 mm | - | - | - |
| 1777130716 | 27.22° C | 43% | 1008.4 hPa | 0 mm | - | - | - |
| 1777125916 | 20.56° C | 68% | 1008.7 hPa | 0 mm | - | - | - |
* Rain latest hour (hover to see other rain measurements)
** Current wind speed in m/s (hover to see current wind gust speed)